CDT,Max TemperatureF,Mean TemperatureF,Min TemperatureF,Max Dew PointF,MeanDew PointF,Min DewpointF,Max Humidity, Mean Humidity, Min Humidity, Max Sea Level PressureIn, Mean Sea Level PressureIn, Min Sea Level PressureIn, Max VisibilityMiles, Mean VisibilityMiles, Min VisibilityMiles, Max Wind SpeedMPH, Mean Wind SpeedMPH, Max Gust SpeedMPH,PrecipitationIn, CloudCover, Events, WindDirDegrees
2013-3-1,38,35,32,32,30,28,92,84,76,30.11,30.07,30.03,10,3,1,14,7,18,0.15,8,Snow,327
2013-3-2,33,31,29,29,25,18,89,74,58,30.20,30.14,30.08,10,6,1,16,9,22,T,8,Snow,330
2013-3-3,40,30,20,22,18,15,84,61,37,30.21,30.16,30.12,10,10,10,12,4,15,0.00,1,,308
2013-3-4,48,37,25,29,24,19,85,65,45,30.14,30.00,29.85,10,10,10,18,8,25,0.01,6,Rain,102
2013-3-5,49,41,32,42,32,22,89,75,61,29.96,29.84,29.74,10,6,0,31,13,41,0.09,8,Fog-Rain-Snow,287
2013-3-6,34,33,31,26,25,23,78,72,66,30.36,30.23,29.95,10,9,2,25,12,33,T,8,Snow,315
2013-3-7,40,35,29,27,25,23,78,66,54,30.45,30.40,30.37,10,10,7,7,2,9,0.00,7,,60
2013-3-8,52,39,25,30,26,22,81,60,38,30.49,30.40,30.31,10,9,7,12,4,16,0.00,0,,82
2013-3-9,60,48,36,34,32,28,64,51,37,30.29,30.13,29.97,10,10,10,16,8,21,0.00,2,,128
2013-3-10,67,61,54,54,43,34,93,64,34,29.96,29.83,29.71,10,9,2,25,11,35,0.17,5,Rain,171
2013-3-11,55,46,36,54,42,28,93,79,65,30.00,29.79,29.71,10,9,4,26,12,35,0.03,8,Rain,234
2013-3-12,50,41,31,29,26,22,75,55,34,30.17,30.08,30.00,10,10,10,20,9,24,0.00,3,,276
2013-3-13,38,31,24,23,18,14,74,59,44,30.44,30.32,30.17,10,10,2,24,10,32,T,5,,311
2013-3-14,42,32,21,30,23,17,88,68,48,30.43,30.35,30.19,10,10,10,13,5,16,T,4,Rain,180
2013-3-15,67,48,29,48,36,27,85,64,42,30.17,29.96,29.73,10,9,3,16,4,22,T,1,Rain,188
2013-3-16,66,53,40,48,41,35,85,69,52,30.03,29.87,29.68,10,8,5,22,13,26,T,3,Rain,316
2013-3-17,40,38,36,36,34,31,92,81,70,30.10,30.02,29.84,10,5,2,18,10,23,1.97,8,Rain,43
2013-3-18,49,41,33,43,38,31,93,82,70,29.96,29.77,29.65,10,7,1,20,9,25,0.86,7,Rain-Thunderstorm,242
2013-3-19,49,39,28,32,21,16,76,52,28,30.22,30.15,29.99,10,10,10,21,8,28,0.00,0,,286
2013-3-20,38,32,25,25,18,12,78,60,41,30.21,30.16,30.12,10,10,10,24,9,31,0.00,3,,313
2013-3-21,36,29,21,18,13,9,68,54,40,30.15,30.10,30.04,10,10,10,14,4,17,T,2,,339
2013-3-22,40,31,22,23,19,16,75,56,37,30.10,30.07,30.03,10,10,10,10,4,14,0.00,6,,83
2013-3-23,58,47,36,29,25,19,59,44,29,30.05,29.96,29.79,10,10,10,15,7,18,T,5,,59
2013-3-24,47,40,33,37,33,27,92,81,70,29.80,29.57,29.42,10,4,2,23,12,29,0.51,8,Rain-Snow,4
2013-3-25,36,34,32,30,28,26,89,80,70,30.13,29.91,29.62,10,4,1,23,15,30,0.06,8,Snow,294
2013-3-26,43,36,28,30,26,21,85,68,51,30.36,30.25,30.14,10,9,5,16,9,21,T,7,Snow,302
2013-3-27,48,37,25,26,23,19,78,58,38,30.42,30.37,30.35,10,10,10,14,5,20,0.00,2,,302
2013-3-28,56,43,29,31,25,23,78,54,29,30.43,30.36,30.31,10,10,6,8,2,12,0.00,2,,42
2013-3-29,52,44,36,43,38,28,92,73,53,30.31,30.27,30.22,10,7,0,9,3,13,T,6,Fog-Rain,130
2013-3-30,59,47,35,47,40,34,100,76,51,30.24,30.13,29.93,10,5,0,14,4,18,0.22,4,Fog-Rain,137
2013-3-31,64,55,46,49,45,40,93,73,52,29.94,29.89,29.86,10,6,2,14,5,17,0.01,6,Rain,265